Time;durP1;ratioP1;P1;durP2;ratioP2;P2;SDS_P1;SDS_P2;PMS_P1;PMS_P2;Temp;Humidity;BMP_temperature;BMP_pressure;BME280_temperature;BME280_humidity;BME280_pressure;Samples;Min_cycle;Max_cycle;Signal;HPM_P1;HPM_P2
2023/05/15 00:00:02;;;;;;;12.27;6.07;;;11.70;99.90;;;;;;5021648;28;20187;-76
2023/05/15 00:02:28;;;;;;;10.65;5.40;;;11.70;99.90;;;;;;5021514;28;20033;-75
2023/05/15 00:04:53;;;;;;;10.93;4.80;;;11.70;99.90;;;;;;5021844;28;20076;-75
2023/05/15 00:07:19;;;;;;;16.58;6.57;;;11.70;99.90;;;;;;5004661;28;20069;-75
2023/05/15 00:09:45;;;;;;;11.65;6.07;;;11.70;99.90;;;;;;5021070;28;20041;-76
2023/05/15 00:12:10;;;;;;;10.93;5.57;;;11.70;99.90;;;;;;5012507;28;20130;-76
2023/05/15 00:14:36;;;;;;;13.93;6.57;;;11.70;99.90;;;;;;5021408;28;20051;-76
2023/05/15 00:17:01;;;;;;;12.25;6.45;;;11.70;99.90;;;;;;5021680;28;20490;-76
2023/05/15 00:19:27;;;;;;;10.27;5.32;;;11.70;99.90;;;;;;5022257;28;20095;-76
2023/05/15 00:21:54;;;;;;;11.02;5.85;;;11.70;99.90;;;;;;5005800;28;20045;-75
2023/05/15 00:24:20;;;;;;;9.60;4.82;;;11.70;99.90;;;;;;5022915;28;20091;-75
2023/05/15 00:26:46;;;;;;;11.48;6.35;;;11.70;99.90;;;;;;5022168;28;20128;-75
2023/05/15 00:29:11;;;;;;;13.15;6.40;;;11.70;99.90;;;;;;5022661;28;20160;-75
2023/05/15 00:31:37;;;;;;;11.45;6.28;;;11.60;99.90;;;;;;5021705;28;20045;-76
2023/05/15 00:34:02;;;;;;;10.90;6.28;;;11.60;99.90;;;;;;5022792;28;20037;-75
2023/05/15 00:36:28;;;;;;;10.40;5.78;;;11.60;99.90;;;;;;5004913;28;20053;-75
2023/05/15 00:38:54;;;;;;;13.15;6.45;;;11.60;99.90;;;;;;5027129;28;20128;-75
2023/05/15 00:41:21;;;;;;;13.15;6.55;;;11.60;99.90;;;;;;5026543;28;20722;-76
2023/05/15 00:43:50;;;;;;;9.88;5.32;;;11.60;99.90;;;;;;5026003;28;20040;-75
2023/05/15 00:46:16;;;;;;;9.38;5.60;;;11.60;99.90;;;;;;5025326;28;20100;-75
2023/05/15 00:48:43;;;;;;;12.15;6.35;;;11.50;99.90;;;;;;5025843;28;20491;-76
2023/05/15 00:51:09;;;;;;;10.05;6.05;;;11.50;99.90;;;;;;5026415;28;20514;-76
2023/05/15 00:53:34;;;;;;;11.75;5.68;;;11.50;99.90;;;;;;5026261;28;20091;-75
2023/05/15 00:56:01;;;;;;;12.48;6.28;;;11.40;99.90;;;;;;5026410;28;20439;-76
2023/05/15 00:58:28;;;;;;;16.25;7.32;;;11.40;99.90;;;;;;5024090;28;20041;-76
2023/05/15 01:00:55;;;;;;;10.93;5.78;;;11.40;99.90;;;;;;5024901;28;20045;-75
2023/05/15 01:03:20;;;;;;;8.27;5.32;;;11.40;99.90;;;;;;5024499;28;20045;-75
2023/05/15 01:05:46;;;;;;;11.40;5.65;;;11.30;99.90;;;;;;5025411;28;20071;-75
2023/05/15 01:10:48;;;;;;;9.23;5.43;;;11.20;99.90;;;;;;5003803;28;20109;-75
2023/05/15 01:13:15;;;;;;;14.38;6.93;;;11.20;99.90;;;;;;5006217;28;20081;-75
2023/05/15 01:15:41;;;;;;;15.20;6.53;;;11.30;99.90;;;;;;5005397;28;20046;-75
2023/05/15 01:18:06;;;;;;;12.00;6.40;;;11.30;99.90;;;;;;5015798;28;20046;-75
2023/05/15 01:20:54;;;;;;;12.05;6.97;;;11.30;99.90;;;;;;4986190;28;20047;-76
2023/05/15 01:23:46;;;;;;;14.40;7.72;;;11.30;99.90;;;;;;4986667;28;20054;-75
2023/05/15 01:26:32;;;;;;;13.57;5.85;;;11.30;99.90;;;;;;4998951;28;20149;-75
2023/05/15 01:29:07;;;;;;;15.40;7.00;;;11.30;99.90;;;;;;4988641;28;20045;-76
2023/05/15 01:31:35;;;;;;;18.73;9.00;;;11.30;99.90;;;;;;5004159;28;20412;-75
2023/05/15 01:34:05;;;;;;;16.08;8.82;;;11.30;99.90;;;;;;5004590;28;20559;-75
2023/05/15 01:36:52;;;;;;;14.77;7.70;;;11.30;99.90;;;;;;5004591;28;20135;-75
2023/05/15 01:39:22;;;;;;;11.60;7.30;;;11.30;99.90;;;;;;5005598;28;20514;-75
2023/05/15 01:41:56;;;;;;;18.05;8.38;;;11.30;99.90;;;;;;5005410;28;20056;-75
2023/05/15 01:44:28;;;;;;;16.48;7.82;;;11.20;99.90;;;;;;5005991;28;20042;-75
2023/05/15 01:46:56;;;;;;;;;;;11.30;99.90;;;;;;5006219;28;20502;-75
2023/05/15 01:49:23;;;;;;;;;;;11.30;99.90;;;;;;5004430;28;19921;-75
2023/05/15 01:51:51;;;;;;;;;;;11.30;99.90;;;;;;5005787;28;19917;-75
2023/05/15 01:54:17;;;;;;;;;;;11.40;99.90;;;;;;5005984;28;19929;-75
2023/05/15 01:56:44;;;;;;;;;;;11.30;99.90;;;;;;5005645;28;19921;-75
2023/05/15 01:59:11;;;;;;;;;;;11.30;99.90;;;;;;5004532;28;19922;-75
2023/05/15 02:01:37;;;;;;;;;;;11.30;99.90;;;;;;5004780;28;19968;-75
2023/05/15 02:04:03;;;;;;;;;;;11.30;99.90;;;;;;5004525;28;19922;-75
2023/05/15 02:06:29;;;;;;;;;;;11.30;99.90;;;;;;5005732;28;19937;-75
2023/05/15 02:08:56;;;;;;;;;;;11.30;99.90;;;;;;5004774;28;19921;-75
2023/05/15 02:11:22;;;;;;;;;;;11.30;99.90;;;;;;5004438;28;19926;-74
2023/05/15 02:13:47;;;;;;;;;;;11.30;99.90;;;;;;5004271;28;19925;-76
2023/05/15 02:16:13;;;;;;;;;;;11.30;99.90;;;;;;5004578;28;19968;-75
2023/05/15 02:18:38;;;;;;;;;;;11.30;99.90;;;;;;5003873;28;19937;-75
2023/05/15 02:21:04;;;;;;;;;;;11.30;99.90;;;;;;5004267;28;19921;-75
2023/05/15 02:23:30;;;;;;;;;;;11.30;99.90;;;;;;5005355;28;19925;-75
2023/05/15 02:25:58;;;;;;;;;;;11.30;99.90;;;;;;5005842;28;20533;-75
2023/05/15 02:28:29;;;;;;;;;;;11.30;99.90;;;;;;5004092;28;19921;-75
2023/05/15 02:30:59;;;;;;;;;;;11.30;99.90;;;;;;5003622;28;20380;-75
2023/05/15 02:33:30;;;;;;;;;;;11.20;99.90;;;;;;5005281;28;20385;-75
2023/05/15 02:35:58;;;;;;;;;;;11.20;99.90;;;;;;5005537;28;19921;-76
2023/05/15 02:38:27;;;;;;;;;;;11.20;99.90;;;;;;5004214;28;19922;-75
2023/05/15 02:40:54;;;;;;;;;;;11.20;99.90;;;;;;4987480;28;19921;-75
2023/05/15 02:43:19;;;;;;;;;;;11.10;99.90;;;;;;4987433;28;19976;-75
2023/05/15 02:45:46;;;;;;;;;;;11.10;99.90;;;;;;5003761;28;19976;-75
2023/05/15 02:48:12;;;;;;;;;;;11.10;99.90;;;;;;5005293;28;19964;-75
2023/05/15 02:50:38;;;;;;;;;;;11.10;99.90;;;;;;5004464;28;19921;-75
2023/05/15 02:53:04;;;;;;;;;;;11.10;99.90;;;;;;5003291;28;20387;-75
2023/05/15 02:55:30;;;;;;;;;;;11.10;99.90;;;;;;5004444;28;20288;-75
2023/05/15 02:57:56;;;;;;;;;;;11.10;99.90;;;;;;5003565;28;19922;-76
2023/05/15 03:00:21;;;;;;;;;;;11.10;99.90;;;;;;5002800;28;19925;-75
2023/05/15 03:02:47;;;;;;;;;;;11.00;99.90;;;;;;5004664;28;19922;-75
2023/05/15 03:05:12;;;;;;;;;;;11.00;99.90;;;;;;5003040;28;20411;-75
2023/05/15 03:07:40;;;;;;;;;;;11.00;99.90;;;;;;5003117;28;19921;-75
2023/05/15 03:10:06;;;;;;;;;;;10.90;99.90;;;;;;5004337;28;19928;-75
2023/05/15 03:12:31;;;;;;;;;;;11.00;99.90;;;;;;5002826;28;20423;-75
2023/05/15 03:14:57;;;;;;;;;;;10.90;99.90;;;;;;5002656;28;19922;-76
2023/05/15 03:17:22;;;;;;;;;;;10.90;99.90;;;;;;5002765;28;19996;-75
2023/05/15 03:19:48;;;;;;;;;;;10.90;99.90;;;;;;5004317;28;19921;-75
2023/05/15 03:22:13;;;;;;;;;;;10.90;99.90;;;;;;5004206;28;20294;-75
2023/05/15 03:24:39;;;;;;;;;;;10.90;99.90;;;;;;5002858;28;19925;-75
2023/05/15 03:27:04;;;;;;;;;;;10.90;99.90;;;;;;5002930;28;19936;-75
2023/05/15 03:29:30;;;;;;;;;;;10.90;99.90;;;;;;5002281;28;19951;-75
2023/05/15 03:31:55;;;;;;;;;;;10.90;99.90;;;;;;5003309;28;20287;-76
2023/05/15 03:34:21;;;;;;;;;;;10.90;99.90;;;;;;5004456;28;19928;-75
2023/05/15 03:36:47;;;;;;;;;;;10.90;99.90;;;;;;5003016;28;19921;-75
2023/05/15 03:39:12;;;;;;;;;;;10.90;99.90;;;;;;5002746;28;20024;-76
2023/05/15 03:41:37;;;;;;;;;;;10.90;99.90;;;;;;5003611;28;19922;-75
2023/05/15 03:44:03;;;;;;;;;;;10.90;99.90;;;;;;5004007;28;19921;-75
2023/05/15 03:46:28;;;;;;;;;;;10.90;99.90;;;;;;5002501;28;19921;-76
2023/05/15 03:48:54;;;;;;;;;;;10.80;99.90;;;;;;5004382;28;20445;-75
2023/05/15 03:51:20;;;;;;;;;;;10.80;99.90;;;;;;5004191;28;19925;-75
2023/05/15 03:53:46;;;;;;;;;;;10.80;99.90;;;;;;5003508;28;19932;-75
2023/05/15 03:56:11;;;;;;;;;;;10.80;99.90;;;;;;5002117;28;19922;-75
2023/05/15 03:58:37;;;;;;;;;;;10.80;99.90;;;;;;5003186;28;20391;-75
2023/05/15 04:01:02;;;;;;;;;;;10.70;99.90;;;;;;5002012;28;19976;-75
2023/05/15 04:03:28;;;;;;;;;;;10.70;99.90;;;;;;5003480;28;19965;-75
2023/05/15 04:05:53;;;;;;;;;;;10.70;99.90;;;;;;5004382;28;19922;-75
2023/05/15 04:08:19;;;;;;;;;;;10.70;99.90;;;;;;5003473;28;19971;-75
2023/05/15 04:10:44;;;;;;;;;;;10.70;99.90;;;;;;5001350;28;20334;-75
2023/05/15 04:13:10;;;;;;;;;;;10.70;99.90;;;;;;5009373;28;19921;-75
2023/05/15 04:15:35;;;;;;;;;;;10.70;99.90;;;;;;5008348;28;19932;-75
2023/05/15 04:18:01;;;;;;;;;;;10.70;99.90;;;;;;5008919;28;19921;-75
2023/05/15 04:20:26;;;;;;;;;;;10.70;99.90;;;;;;5008153;28;20213;-76
2023/05/15 04:22:52;;;;;;;;;;;10.70;99.90;;;;;;5009460;28;20337;-75
2023/05/15 04:25:19;;;;;;;;;;;10.70;99.90;;;;;;5008912;28;19983;-75
2023/05/15 04:27:44;;;;;;;;;;;10.70;99.90;;;;;;5009654;28;20400;-75
2023/05/15 04:30:10;;;;;;;;;;;10.80;99.90;;;;;;5008752;28;19972;-75
2023/05/15 04:32:36;;;;;;;;;;;10.80;99.90;;;;;;5008476;28;19926;-75
2023/05/15 04:35:04;;;;;;;;;;;10.80;99.90;;;;;;5010287;28;19921;-75
2023/05/15 04:37:30;;;;;;;;;;;10.80;99.90;;;;;;5001606;28;19922;-75
2023/05/15 04:39:55;;;;;;;;;;;10.90;99.90;;;;;;5008096;28;20429;-75
2023/05/15 04:42:21;;;;;;;;;;;10.90;99.90;;;;;;5007911;28;20445;-76
2023/05/15 04:44:46;;;;;;;;;;;10.80;99.90;;;;;;5007561;28;20071;-76
2023/05/15 04:47:12;;;;;;;;;;;10.90;99.90;;;;;;5008465;28;20452;-76
2023/05/15 04:49:38;;;;;;;;;;;10.90;99.90;;;;;;5008150;28;19948;-76
2023/05/15 04:52:03;;;;;;;;;;;11.00;99.90;;;;;;5008689;28;20395;-76
2023/05/15 04:54:29;;;;;;;;;;;11.00;99.90;;;;;;5009524;28;20004;-76
2023/05/15 04:56:55;;;;;;;;;;;11.10;99.90;;;;;;5010197;28;19976;-75
2023/05/15 04:59:20;;;;;;;;;;;11.10;99.90;;;;;;5007120;28;19979;-76
2023/05/15 05:01:46;;;;;;;;;;;11.10;99.90;;;;;;5007580;28;19936;-75
2023/05/15 05:04:11;;;;;;;;;;;11.20;99.90;;;;;;5009402;28;19976;-76
2023/05/15 05:06:37;;;;;;;;;;;11.20;99.90;;;;;;5009682;28;19937;-76
2023/05/15 05:09:02;;;;;;;;;;;11.10;99.90;;;;;;5009343;28;20327;-75
2023/05/15 05:11:28;;;;;;;;;;;11.20;99.90;;;;;;4997382;28;19931;-76
2023/05/15 05:13:53;;;;;;;;;;;11.30;99.90;;;;;;5008244;28;19996;-75
2023/05/15 05:16:19;;;;;;;;;;;11.30;99.90;;;;;;5004929;28;20375;-75
2023/05/15 05:18:44;;;;;;;;;;;11.30;99.90;;;;;;5018154;28;19924;-76
2023/05/15 05:21:10;;;;;;;;;;;11.40;99.90;;;;;;5009509;28;19925;-75
2023/05/15 05:23:35;;;;;;;;;;;11.40;99.90;;;;;;5002273;28;19925;-76
2023/05/15 05:26:01;;;;;;;;;;;11.40;99.90;;;;;;4993549;28;19926;-76
2023/05/15 05:28:27;;;;;;;;;;;11.40;99.90;;;;;;4987998;28;19921;-75
2023/05/15 05:30:52;;;;;;;;;;;11.40;99.90;;;;;;5004319;28;19967;-76
2023/05/15 05:33:18;;;;;;;;;;;11.40;99.90;;;;;;5001977;28;19917;-76
2023/05/15 05:35:43;;;;;;;;;;;11.40;99.90;;;;;;4984848;28;19940;-75
2023/05/15 05:38:09;;;;;;;;;;;11.40;99.90;;;;;;5003289;28;19917;-75
2023/05/15 05:40:36;;;;;;;;;;;11.50;99.90;;;;;;4999083;28;19922;-75
2023/05/15 05:43:02;;;;;;;;;;;11.50;99.90;;;;;;4999221;28;19922;-75
2023/05/15 05:45:28;;;;;;;;;;;11.50;99.90;;;;;;4995163;28;19924;-77
2023/05/15 05:47:57;;;;;;;;;;;11.60;99.90;;;;;;5004042;28;20422;-75
2023/05/15 05:50:22;;;;;;;;;;;11.60;99.90;;;;;;5002250;28;19933;-75
2023/05/15 05:52:48;;;;;;;;;;;11.60;99.90;;;;;;5000786;28;20141;-75
2023/05/15 05:55:14;;;;;;;;;;;11.60;99.90;;;;;;4999633;28;19975;-74
2023/05/15 05:57:39;;;;;;;;;;;11.70;99.90;;;;;;4990646;28;20029;-74
2023/05/15 06:00:09;;;;;;;;;;;11.70;99.90;;;;;;4996443;28;20153;-74
2023/05/15 06:02:38;;;;;;;;;;;11.70;99.90;;;;;;4985456;28;20422;-75
2023/05/15 06:05:05;;;;;;;;;;;11.80;99.90;;;;;;4984377;28;20375;-74
2023/05/15 06:07:31;;;;;;;;;;;11.80;99.90;;;;;;5004309;28;20172;-74
2023/05/15 06:09:56;;;;;;;;;;;11.70;99.90;;;;;;5004483;28;19921;-74
2023/05/15 06:12:22;;;;;;;;;;;11.70;99.90;;;;;;5004686;28;19928;-75
2023/05/15 06:14:47;;;;;;;;;;;11.70;99.90;;;;;;4999245;28;20409;-74
2023/05/15 06:17:13;;;;;;;;;;;11.70;99.90;;;;;;4990400;28;20593;-74
2023/05/15 06:19:38;;;;;;;;;;;11.70;99.90;;;;;;4985085;28;20304;-74
2023/05/15 06:22:04;;;;;;;;;;;11.70;99.90;;;;;;5004855;28;19927;-75
2023/05/15 06:24:29;;;;;;;;;;;11.70;99.90;;;;;;5001130;28;20023;-74
2023/05/15 06:26:55;;;;;;;;;;;11.80;99.90;;;;;;5002421;28;19929;-75
2023/05/15 06:29:21;;;;;;;;;;;11.80;99.90;;;;;;5000202;28;19979;-74
2023/05/15 06:31:46;;;;;;;;;;;11.80;99.90;;;;;;5000468;28;20243;-74
2023/05/15 06:34:12;;;;;;;;;;;11.80;99.90;;;;;;5003609;28;19965;-75
2023/05/15 06:36:37;;;;;;;;;;;11.90;99.90;;;;;;5003978;28;20390;-74
2023/05/15 06:39:03;;;;;;;;;;;11.90;99.90;;;;;;4996659;28;19918;-75
2023/05/15 06:41:28;;;;;;;;;;;12.00;99.90;;;;;;5001805;28;19921;-75
2023/05/15 06:43:54;;;;;;;;;;;12.00;99.90;;;;;;4986739;28;20426;-76
2023/05/15 06:46:20;;;;;;;;;;;12.00;99.90;;;;;;5003381;28;20382;-75
2023/05/15 06:48:48;;;;;;;;;;;12.00;99.90;;;;;;5003327;28;20342;-74
2023/05/15 06:51:14;;;;;;;;;;;12.00;99.90;;;;;;5003466;28;20213;-75
2023/05/15 06:53:40;;;;;;;;;;;12.10;99.90;;;;;;5003984;28;20022;-75
2023/05/15 06:56:05;;;;;;;;;;;12.10;99.90;;;;;;5004120;28;19924;-75
2023/05/15 06:58:31;;;;;;;;;;;12.10;99.90;;;;;;5003583;28;20138;-75
2023/05/15 07:00:56;;;;;;;;;;;12.10;99.90;;;;;;5002591;28;20399;-74
2023/05/15 07:03:22;;;;;;;;;;;12.10;99.90;;;;;;5003883;28;20003;-75
2023/05/15 07:05:48;;;;;;;;;;;12.10;99.90;;;;;;5003457;28;19921;-75
2023/05/15 07:08:13;;;;;;;;;;;12.10;99.90;;;;;;5001134;28;19925;-75
2023/05/15 07:10:39;;;;;;;;;;;12.10;99.90;;;;;;4998115;28;20012;-75
2023/05/15 07:13:04;;;;;;;;;;;12.10;99.90;;;;;;5003445;28;19921;-75
2023/05/15 07:15:29;;;;;;;;;;;12.20;99.90;;;;;;5002650;28;19928;-76
2023/05/15 07:17:55;;;;;;;;;;;12.20;99.90;;;;;;5004023;28;20024;-75
2023/05/15 07:20:21;;;;;;;;;;;12.20;99.90;;;;;;5003495;28;19921;-75
2023/05/15 07:22:46;;;;;;;;;;;12.20;99.90;;;;;;5002410;28;19918;-75
2023/05/15 07:25:11;;;;;;;;;;;12.20;99.90;;;;;;5003074;28;20233;-75
2023/05/15 07:27:37;;;;;;;;;;;12.20;99.90;;;;;;5002470;28;20422;-76
2023/05/15 07:30:03;;;;;;;;;;;12.30;99.90;;;;;;4991876;28;19997;-75
2023/05/15 07:32:29;;;;;;;;;;;12.30;99.90;;;;;;5001158;28;20291;-76
2023/05/15 07:34:55;;;;;;;;;;;12.30;99.90;;;;;;5003273;28;19925;-75
2023/05/15 07:37:20;;;;;;;;;;;12.40;99.90;;;;;;4993029;28;19926;-76
2023/05/15 07:39:46;;;;;;;;;;;12.50;99.90;;;;;;4992067;28;20327;-74
2023/05/15 07:42:11;;;;;;;;;;;12.50;99.90;;;;;;5003233;28;19921;-76
2023/05/15 07:44:36;;;;;;;;;;;12.50;99.90;;;;;;5001819;28;19948;-75
2023/05/15 07:47:02;;;;;;;;;;;12.60;99.90;;;;;;4993836;28;20630;-76
2023/05/15 07:49:28;;;;;;;;;;;12.60;99.90;;;;;;5002878;28;19921;-75
2023/05/15 07:51:53;;;;;;;;;;;12.70;99.90;;;;;;4999054;28;19971;-76
2023/05/15 07:54:18;;;;;;;;;;;12.70;99.90;;;;;;4998903;28;19926;-75
2023/05/15 07:56:44;;;;;;;;;;;12.80;99.90;;;;;;4993644;28;20342;-76
2023/05/15 07:59:09;;;;;;;;;;;12.90;99.90;;;;;;5001759;28;19948;-76
2023/05/15 08:01:35;;;;;;;;;;;13.10;99.90;;;;;;4998628;28;19983;-75
2023/05/15 08:04:01;;;;;;;;;;;13.10;99.90;;;;;;5003329;28;20351;-74
2023/05/15 08:06:26;;;;;;;;;;;13.20;99.90;;;;;;4999852;28;19921;-75
2023/05/15 08:08:52;;;;;;;;;;;13.30;99.90;;;;;;5001765;28;20387;-75
2023/05/15 08:11:17;;;;;;;;;;;13.30;99.90;;;;;;5002939;28;19929;-75
2023/05/15 08:13:43;;;;;;;;;;;13.30;99.90;;;;;;5002821;28;19922;-75
2023/05/15 08:16:08;;;;;;;;;;;13.30;99.90;;;;;;4997897;28;20261;-75
2023/05/15 08:18:34;;;;;;;;;;;13.40;99.90;;;;;;4987292;28;20028;-79
2023/05/15 08:20:59;;;;;;;;;;;13.40;99.90;;;;;;4998668;28;19926;-77
2023/05/15 08:23:25;;;;;;;;;;;13.50;99.90;;;;;;4981326;28;19940;-75
2023/05/15 08:25:50;;;;;;;;;;;13.50;99.90;;;;;;4964635;28;20024;-74
2023/05/15 08:28:16;;;;;;;;;;;13.50;99.90;;;;;;4958661;28;19929;-76
2023/05/15 08:30:41;;;;;;;;;;;13.60;99.90;;;;;;4955465;28;20258;-73
2023/05/15 08:33:07;;;;;;;;;;;13.60;99.90;;;;;;4991866;28;19922;-76
2023/05/15 08:35:32;;;;;;;;;;;13.70;99.90;;;;;;4999765;28;19929;-77
2023/05/15 08:37:58;;;;;;;;;;;13.70;99.90;;;;;;5000145;28;19921;-78
2023/05/15 08:40:24;;;;;;;;;;;13.80;99.90;;;;;;4999630;28;20358;-79
2023/05/15 08:42:53;;;;;;;;;;;13.80;99.90;;;;;;4985066;28;19925;-80
2023/05/15 08:45:19;;;;;;;;;;;13.80;99.90;;;;;;4999849;28;20012;-80
2023/05/15 08:47:44;;;;;;;;;;;13.90;99.90;;;;;;4995467;28;20431;-79
2023/05/15 08:50:12;;;;;;;;;;;13.90;99.90;;;;;;5000702;28;20330;-81
2023/05/15 08:52:40;;;;;;;;;;;13.90;99.90;;;;;;4999414;28;19948;-79
2023/05/15 08:55:06;;;;;;;;;;;13.90;99.90;;;;;;4997194;28;19917;-79
2023/05/15 08:57:32;;;;;;;;;;;14.00;99.90;;;;;;4988677;28;20414;-80
2023/05/15 08:59:58;;;;;;;;;;;14.00;99.90;;;;;;4990889;28;20299;-79
2023/05/15 09:02:24;;;;;;;;;;;14.00;99.90;;;;;;5005725;28;19929;-81
2023/05/15 09:04:50;;;;;;;;;;;14.00;99.90;;;;;;5004272;28;20023;-78
2023/05/15 09:07:16;;;;;;;;;;;14.00;99.90;;;;;;5004424;28;20463;-82
2023/05/15 09:09:43;;;;;;;;;;;14.00;99.90;;;;;;4997570;28;19929;-76
2023/05/15 09:12:13;;;;;;;;;;;14.10;99.90;;;;;;4972700;28;20380;-80
2023/05/15 09:14:39;;;;;;;;;;;14.10;99.90;;;;;;4990100;28;20024;-80
2023/05/15 09:17:04;;;;;;;;;;;14.10;99.90;;;;;;5005129;28;20201;-80
2023/05/15 09:19:32;;;;;;;;;;;14.10;99.90;;;;;;5002180;28;19925;-83
2023/05/15 09:22:15;;;;;;;;;;;14.10;99.90;;;;;;4991265;28;20427;-74
2023/05/15 09:24:40;;;;;;;;;;;14.10;99.90;;;;;;4992886;28;19925;-77
2023/05/15 09:27:07;;;;;;;;;;;14.10;99.90;;;;;;4999114;28;19972;-78
2023/05/15 09:29:33;;;;;;;;;;;14.10;99.90;;;;;;4990896;28;19929;-79
2023/05/15 09:32:03;;;;;;;;;;;14.10;99.90;;;;;;4999324;28;20151;-82
2023/05/15 09:34:32;;;;;;;;;;;14.20;99.90;;;;;;4984440;28;19929;-79
2023/05/15 09:37:00;;;;;;;;;;;14.20;99.90;;;;;;5005789;28;20392;-80
2023/05/15 09:39:25;;;;;;;;;;;14.30;99.90;;;;;;5006330;28;19982;-76
2023/05/15 09:41:51;;;;;;;;;;;14.30;99.90;;;;;;4993852;28;20591;-79
2023/05/15 09:44:26;;;;;;;;;;;14.40;99.90;;;;;;4985731;28;19929;-81
2023/05/15 09:46:51;;;;;;;;;;;14.40;99.90;;;;;;4985912;28;20012;-83
2023/05/15 09:49:18;;;;;;;;;;;14.40;99.90;;;;;;4993750;28;20064;-79
2023/05/15 09:51:43;;;;;;;;;;;14.40;99.90;;;;;;5006044;28;19964;-82
2023/05/15 09:54:18;;;;;;;;;;;14.40;99.90;;;;;;5001779;28;19922;-78
2023/05/15 09:56:44;;;;;;;;;;;14.40;99.90;;;;;;5004309;28;19922;-79
2023/05/15 09:59:14;;;;;;;;;;;14.40;99.90;;;;;;4989017;28;19926;-77
2023/05/15 10:01:46;;;;;;;;;;;14.40;99.90;;;;;;4986542;28;19933;-82
2023/05/15 10:04:12;;;;;;;;;;;14.40;99.90;;;;;;4987721;28;19973;-78
2023/05/15 10:06:39;;;;;;;;;;;14.40;99.90;;;;;;5004276;28;19921;-76
2023/05/15 10:09:05;;;;;;;;;;;14.50;99.90;;;;;;5005753;28;19997;-79
2023/05/15 10:11:35;;;;;;;;;;;14.50;99.90;;;;;;5004977;28;20023;-81
2023/05/15 10:14:01;;;;;;;;;;;14.60;99.90;;;;;;4986572;28;19953;-77
2023/05/15 10:16:27;;;;;;;;;;;14.60;99.90;;;;;;5005193;28;19921;-82
2023/05/15 10:18:55;;;;;;;;;;;14.60;99.90;;;;;;5005941;28;20086;-78
2023/05/15 10:21:22;;;;;;;;;;;14.60;99.90;;;;;;5006062;28;20350;-78
2023/05/15 10:23:48;;;;;;;;;;;14.60;99.90;;;;;;5005229;28;20020;-73
2023/05/15 10:26:22;;;;;;;;;;;14.60;99.90;;;;;;5000027;28;20137;-81
2023/05/15 10:28:49;;;;;;;;;;;14.60;99.90;;;;;;4995175;28;19930;-78
2023/05/15 10:31:16;;;;;;;;;;;14.60;99.90;;;;;;4999135;28;19972;-84
2023/05/15 10:33:42;;;;;;;;;;;14.60;99.90;;;;;;4996050;28;20216;-81
2023/05/15 10:36:08;;;;;;;;;;;14.60;99.90;;;;;;5004419;28;20326;-78
2023/05/15 10:38:34;;;;;;;;;;;14.70;99.90;;;;;;5003070;28;19979;-81
2023/05/15 10:41:00;;;;;;;;;;;14.70;99.90;;;;;;5004120;28;20367;-79
2023/05/15 10:43:27;;;;;;;;;;;14.70;99.90;;;;;;5002050;28;19921;-81
2023/05/15 10:45:52;;;;;;;;;;;14.80;99.90;;;;;;5002249;28;20338;-80
2023/05/15 10:48:18;;;;;;;;;;;14.80;99.90;;;;;;4986300;28;19928;-77
2023/05/15 10:50:44;;;;;;;;;;;14.80;99.90;;;;;;5002764;28;19921;-76
2023/05/15 10:53:10;;;;;;;;;;;14.80;99.90;;;;;;4986295;28;19925;-76
2023/05/15 10:55:35;;;;;;;;;;;14.70;99.90;;;;;;5001794;28;19953;-76
2023/05/15 10:58:01;;;;;;;;;;;14.70;99.90;;;;;;5004430;28;19921;-78
2023/05/15 11:00:27;;;;;;;;;;;14.70;99.90;;;;;;5001463;28;19929;-75
2023/05/15 11:02:55;;;;;;;;;;;14.70;99.90;;;;;;5004384;28;20374;-79
2023/05/15 11:05:21;;;;;;;;;;;14.60;99.90;;;;;;4983110;28;19971;-77
2023/05/15 11:08:05;;;;;;;;;;;14.60;99.90;;;;;;4988685;28;19925;-77
2023/05/15 11:10:35;;;;;;;;;;;14.60;99.90;;;;;;4995735;28;20368;-79
2023/05/15 11:13:01;;;;;;;;;;;14.50;99.90;;;;;;4995797;28;19925;-79
2023/05/15 11:15:39;;;;;;;;;;;14.50;99.90;;;;;;5001285;28;20280;-79
2023/05/15 11:18:05;;;;;;;;;;;14.50;99.90;;;;;;5002985;28;19929;-77
2023/05/15 11:20:41;;;;;;;;;;;14.50;99.90;;;;;;5002549;28;20375;-74
2023/05/15 11:23:06;;;;;;;;;;;14.40;99.90;;;;;;5003078;28;19929;-78
2023/05/15 11:25:33;;;;;;;;;;;14.40;99.90;;;;;;5002447;28;20365;-79
2023/05/15 11:27:59;;;;;;;;;;;14.40;99.90;;;;;;4997450;28;19922;-78
2023/05/15 11:30:45;;;;;;;;;;;14.40;99.90;;;;;;4994283;28;19921;-77
2023/05/15 11:33:11;;;;;;;;;;;14.50;99.90;;;;;;4984020;28;19965;-76
2023/05/15 11:35:45;;;;;;;;;;;14.50;99.90;;;;;;5002254;28;19921;-78
2023/05/15 11:38:15;;;;;;;;;;;14.50;99.90;;;;;;5001864;28;20375;-76
2023/05/15 11:40:46;;;;;;;;;;;14.60;99.90;;;;;;4985731;28;19921;-77
2023/05/15 11:43:20;;;;;;;;;;;14.60;99.90;;;;;;5002926;28;19967;-78
2023/05/15 11:45:51;;;;;;;;;;;14.60;99.90;;;;;;4996763;28;19925;-77
2023/05/15 11:48:17;;;;;;;;;;;14.60;99.90;;;;;;4984968;28;20214;-78
2023/05/15 11:50:44;;;;;;;;;;;14.60;99.90;;;;;;4998093;28;20358;-77
2023/05/15 11:53:10;;;;;;;;;;;14.70;99.90;;;;;;4998706;28;19974;-75
2023/05/15 11:55:36;;;;;;;;;;;14.70;99.90;;;;;;4995340;28;19975;-77
2023/05/15 11:58:03;;;;;;;;;;;14.60;99.90;;;;;;4993389;28;19921;-75
2023/05/15 12:00:28;;;;;;;;;;;14.70;99.90;;;;;;4999712;28;19921;-76
2023/05/15 12:02:54;;;;;;;;;;;14.70;99.90;;;;;;5000047;28;19922;-74
2023/05/15 12:05:19;;;;;;;;;;;14.70;99.90;;;;;;4995039;28;20045;-76
2023/05/15 12:07:45;;;;;;;;;;;14.70;99.90;;;;;;4997965;28;19926;-77
2023/05/15 12:10:11;;;;;;;;;;;14.60;99.90;;;;;;4998837;28;20136;-77
2023/05/15 12:12:43;;;;;;;;;;;14.60;99.90;;;;;;4982735;28;20368;-77
2023/05/15 12:15:12;;;;;;;;;;;14.70;99.90;;;;;;5000800;28;20409;-77
2023/05/15 12:17:38;;;;;;;;;;;14.60;99.90;;;;;;5001631;28;19925;-74
2023/05/15 12:20:06;;;;;;;;;;;14.60;99.90;;;;;;5003476;28;19921;-76
2023/05/15 12:22:40;;;;;;;;;;;14.60;99.90;;;;;;5001210;28;19925;-77
2023/05/15 12:25:06;;;;;;;;;;;14.60;99.90;;;;;;5000932;28;19922;-74
2023/05/15 12:27:32;;;;;;;;;;;14.60;99.90;;;;;;5000587;28;20024;-76
2023/05/15 12:29:58;;;;;;;;;;;14.60;99.90;;;;;;4996030;28;20011;-75
2023/05/15 12:32:25;;;;;;;;;;;14.60;99.90;;;;;;4993046;28;20478;-78
2023/05/15 12:34:50;;;;;;;;;;;14.70;99.90;;;;;;5002230;28;19936;-76
2023/05/15 12:37:19;;;;;;;;;;;14.70;99.90;;;;;;5000421;28;20332;-75
2023/05/15 12:39:48;;;;;;;;;;;14.60;99.90;;;;;;4989447;28;19925;-75
2023/05/15 12:42:14;;;;;;;;;;;14.70;99.90;;;;;;4998440;28;19921;-77
2023/05/15 12:44:39;;;;;;;;;;;14.70;99.90;;;;;;5002202;28;19968;-78
2023/05/15 12:47:05;;;;;;;;;;;14.70;99.90;;;;;;5004001;28;19922;-77
2023/05/15 12:49:34;;;;;;;;;;;14.70;99.90;;;;;;4997505;28;19968;-78
2023/05/15 12:52:06;;;;;;;;;;;14.70;99.90;;;;;;5003372;28;19936;-73
2023/05/15 12:54:37;;;;;;;;;;;14.70;99.90;;;;;;5003627;28;19936;-78
2023/05/15 12:57:02;;;;;;;;;;;14.60;99.90;;;;;;5003885;28;19922;-78
2023/05/15 12:59:28;;;;;;;;;;;14.60;99.90;;;;;;5000439;28;20272;-77
2023/05/15 13:01:54;;;;;;;;;;;14.60;99.90;;;;;;5006667;28;20368;-78
2023/05/15 13:04:19;;;;;;;;;;;14.60;99.90;;;;;;5002364;28;20141;-77
2023/05/15 13:06:45;;;;;;;;;;;14.60;99.90;;;;;;5000168;28;20753;-77
2023/05/15 13:09:11;;;;;;;;;;;14.60;99.90;;;;;;5004442;28;19922;-78
2023/05/15 13:11:41;;;;;;;;;;;14.60;99.90;;;;;;5004123;28;20402;-83
2023/05/15 13:14:07;;;;;;;;;;;14.60;99.90;;;;;;4979743;28;19976;-82
2023/05/15 13:16:35;;;;;;;;;;;14.60;99.90;;;;;;4985472;28;19921;-82
2023/05/15 13:19:00;;;;;;;;;;;14.60;99.90;;;;;;5000115;28;19930;-79
2023/05/15 13:21:26;;;;;;;;;;;14.50;99.90;;;;;;5002075;28;19926;-82
2023/05/15 13:23:51;;;;;;;;;;;14.50;99.90;;;;;;4999326;28;19967;-82
2023/05/15 13:26:17;;;;;;;;;;;14.50;99.90;;;;;;4997812;28;19929;-77
2023/05/15 13:28:42;;;;;;;;;;;14.60;99.90;;;;;;5003679;28;19921;-79
2023/05/15 13:31:08;;;;;;;;;;;14.50;99.90;;;;;;4998809;28;20032;-84
2023/05/15 13:33:34;;;;;;;;;;;14.60;99.90;;;;;;4991448;28;20004;-80
2023/05/15 13:36:00;;;;;;;;;;;14.60;99.90;;;;;;5006209;28;20240;-85
2023/05/15 13:38:26;;;;;;;;;;;14.60;99.90;;;;;;5004357;28;19925;-80
2023/05/15 13:40:51;;;;;;;;;;;14.60;99.90;;;;;;5005809;28;20296;-81
2023/05/15 13:43:17;;;;;;;;;;;14.70;99.90;;;;;;5001049;28;19971;-77
2023/05/15 13:45:42;;;;;;;;;;;14.70;99.90;;;;;;4989406;28;19926;-81
2023/05/15 13:48:08;;;;;;;;;;;14.80;99.90;;;;;;4995650;28;19922;-78
2023/05/15 13:50:33;;;;;;;;;;;14.80;99.90;;;;;;4992285;28;19921;-82
2023/05/15 13:52:58;;;;;;;;;;;14.90;99.90;;;;;;4998084;28;19917;-82
2023/05/15 13:55:24;;;;;;;;;;;14.90;99.90;;;;;;4998942;28;19976;-81
2023/05/15 13:57:51;;;;;;;;;;;14.90;99.90;;;;;;4989080;28;20312;-77
2023/05/15 14:00:17;;;;;;;;;;;14.90;99.90;;;;;;5000983;28;19921;-78
2023/05/15 14:02:43;;;;;;;;;;;14.90;99.90;;;;;;5001779;28;20098;-81